Time;durP1;ratioP1;P1;durP2;ratioP2;P2;SDS_P1;SDS_P2;PMS_P1;PMS_P2;Temp;Humidity;BMP_temperature;BMP_pressure;BME280_temperature;BME280_humidity;BME280_pressure;Samples;Min_cycle;Max_cycle;Signal;HPM_P1;HPM_P2
2021/08/12 00:00:00;;;;;;;9.25;4.55;;;;;;;23.72;48.27;101720.53;5023658;28;20070;-60
2021/08/12 00:02:26;;;;;;;9.57;4.30;;;;;;;23.74;47.91;101720.31;5003406;28;20045;-60
2021/08/12 00:04:51;;;;;;;6.20;3.42;;;;;;;23.72;48.05;101719.66;5032720;28;20018;-59
2021/08/12 00:07:17;;;;;;;4.95;2.80;;;;;;;23.71;48.56;101727.03;5034257;28;20485;-59
2021/08/12 00:09:42;;;;;;;4.32;3.40;;;;;;;23.69;48.04;101729.13;5033932;28;20474;-60
2021/08/12 00:12:08;;;;;;;4.88;3.67;;;;;;;23.67;48.16;101724.88;5035213;28;20500;-59
2021/08/12 00:14:33;;;;;;;7.70;4.53;;;;;;;23.66;48.63;101728.66;5037601;28;20425;-61
2021/08/12 00:16:59;;;;;;;6.57;3.95;;;;;;;23.65;48.34;101725.06;5037863;28;20068;-59
2021/08/12 00:19:24;;;;;;;9.18;4.70;;;;;;;23.64;48.23;101714.31;5037415;28;20021;-60
2021/08/12 00:21:49;;;;;;;13.02;5.60;;;;;;;23.60;48.74;101719.31;5037865;28;20424;-60
2021/08/12 00:24:15;;;;;;;10.35;4.25;;;;;;;23.61;48.04;101726.50;5037506;28;20049;-59
2021/08/12 00:26:41;;;;;;;4.95;3.22;;;;;;;23.61;48.89;101720.19;5037458;28;20037;-60
2021/08/12 00:29:07;;;;;;;5.95;3.47;;;;;;;23.58;48.30;101720.56;5036987;28;20029;-60
2021/08/12 00:31:32;;;;;;;4.80;3.58;;;;;;;23.56;48.15;101718.00;5037763;28;20480;-60
2021/08/12 00:33:58;;;;;;;3.10;2.60;;;;;;;23.53;48.97;101718.41;5036150;28;20470;-59
2021/08/12 00:36:24;;;;;;;2.25;2.00;;;;;;;23.51;48.27;101719.59;5036169;28;20021;-59
2021/08/12 00:38:50;;;;;;;6.75;3.15;;;;;;;23.45;48.88;101704.81;5036570;28;20040;-59
2021/08/12 00:41:15;;;;;;;6.00;2.20;;;;;;;23.43;49.13;101700.56;5036196;28;20028;-59
2021/08/12 00:43:40;;;;;;;7.03;4.47;;;;;;;23.41;49.19;101697.19;5037411;28;20090;-59
2021/08/12 00:46:06;;;;;;;10.50;3.80;;;;;;;23.41;48.33;101698.06;5036982;28;20028;-59
2021/08/12 00:48:31;;;;;;;6.32;4.47;;;;;;;23.40;49.09;101707.28;5037393;28;20187;-59
2021/08/12 00:50:58;;;;;;;6.18;3.83;;;;;;;23.36;49.11;101702.38;5035642;28;20489;-59
2021/08/12 00:53:23;;;;;;;6.85;4.10;;;;;;;23.38;49.13;101714.84;5035777;28;20025;-60
2021/08/12 00:55:49;;;;;;;6.38;3.38;;;;;;;23.32;48.61;101710.09;5036247;28;20022;-60
2021/08/12 00:58:15;;;;;;;5.47;3.38;;;;;;;23.35;49.14;101720.66;5037073;28;20096;-59
2021/08/12 01:00:41;;;;;;;2.63;1.90;;;;;;;23.33;48.32;101706.34;5036875;28;20033;-60
2021/08/12 01:03:10;;;;;;;7.70;2.55;;;;;;;23.30;48.38;101708.59;5036878;28;20083;-59
2021/08/12 01:05:43;;;;;;;3.40;2.72;;;;;;;23.24;48.86;101701.16;5036831;28;20025;-59
2021/08/12 01:08:19;;;;;;;3.70;2.80;;;;;;;23.23;48.94;101708.50;5037081;28;20060;-59
2021/08/12 01:10:56;;;;;;;2.83;2.25;;;;;;;23.20;48.92;101707.00;5035487;28;20028;-60
2021/08/12 01:13:43;;;;;;;3.55;2.63;;;;;;;23.17;48.70;101706.53;5035369;28;20117;-59
2021/08/12 01:16:10;;;;;;;5.68;2.88;;;;;;;23.12;48.83;101692.56;5036695;28;20386;-61
2021/08/12 01:18:39;;;;;;;7.00;3.72;;;;;;;23.13;49.17;101705.22;5036614;28;20401;-60
2021/08/12 01:21:19;;;;;;;6.03;3.40;;;;;;;23.15;48.61;101719.53;5035401;28;20057;-60
2021/08/12 01:23:45;;;;;;;3.83;2.35;;;;;;;23.13;49.27;101713.41;5035148;28;20025;-60
2021/08/12 01:26:12;;;;;;;5.70;3.10;;;;;;;23.13;49.54;101710.69;5034858;28;20029;-60
2021/08/12 01:28:48;;;;;;;6.05;3.40;;;;;;;23.09;49.37;101701.16;5036660;28;20033;-60
2021/08/12 01:31:25;;;;;;;4.72;3.40;;;;;;;23.12;48.82;101708.97;5035348;28;20421;-60
2021/08/12 01:34:08;;;;;;;6.38;3.67;;;;;;;23.13;49.03;101705.22;5034782;28;20033;-60
2021/08/12 01:36:36;;;;;;;6.32;3.38;;;;;;;23.11;48.80;101707.31;5036080;28;20029;-61
2021/08/12 01:39:04;;;;;;;8.35;4.57;;;;;;;23.11;49.54;101701.84;5037218;28;20079;-60
2021/08/12 01:41:30;;;;;;;7.28;4.63;;;;;;;23.13;48.90;101699.75;5036664;28;20075;-60
2021/08/12 01:43:57;;;;;;;6.97;4.80;;;;;;;23.09;49.45;101704.75;5036447;28;20021;-60
2021/08/12 01:46:26;;;;;;;8.15;5.30;;;;;;;23.14;50.04;101717.84;5034830;28;20026;-60
2021/08/12 01:48:53;;;;;;;8.15;4.57;;;;;;;23.14;49.79;101717.84;5034727;28;20029;-60
2021/08/12 01:51:20;;;;;;;7.18;4.88;;;;;;;23.19;49.26;101718.13;5034524;28;20029;-61
2021/08/12 01:53:45;;;;;;;11.13;6.10;;;;;;;23.20;49.02;101717.06;5034947;28;20025;-60
2021/08/12 01:56:14;;;;;;;10.23;4.90;;;;;;;23.23;50.00;101708.50;5034855;28;20025;-60
2021/08/12 01:58:40;;;;;;;8.25;4.15;;;;;;;23.24;49.05;101712.94;5035635;28;20075;-61
2021/08/12 02:01:05;;;;;;;6.97;4.13;;;;;;;23.25;49.29;101703.72;5034440;28;20056;-60
2021/08/12 02:03:31;;;;;;;6.45;4.47;;;;;;;23.24;49.75;101702.00;5035720;28;20105;-61
2021/08/12 02:05:57;;;;;;;8.32;4.70;;;;;;;23.27;49.18;101701.63;5035571;28;20022;-61
2021/08/12 02:08:23;;;;;;;9.43;5.28;;;;;;;23.29;49.26;101699.53;5035595;28;20125;-60
2021/08/12 02:10:50;;;;;;;9.57;4.95;;;;;;;23.31;49.69;101691.16;5034139;28;20029;-61
2021/08/12 02:13:15;;;;;;;10.75;5.72;;;;;;;23.22;49.44;101670.41;5035409;28;20389;-61
2021/08/12 02:15:41;;;;;;;9.43;5.25;;;;;;;23.31;49.27;101681.03;5036014;28;20022;-61
2021/08/12 02:18:06;;;;;;;8.23;5.05;;;;;;;23.33;50.25;101684.47;5036267;28;20026;-61
2021/08/12 02:20:32;;;;;;;7.65;4.90;;;;;;;23.33;50.30;101681.72;5035714;28;20029;-61
2021/08/12 02:23:01;;;;;;;8.95;4.88;;;;;;;23.34;49.59;101683.41;5034265;28;20044;-61
2021/08/12 02:25:49;;;;;;;6.65;4.70;;;;;;;23.33;50.22;101684.47;5017340;28;20273;-60
2021/08/12 02:28:15;;;;;;;9.70;4.72;;;;;;;23.30;50.10;101673.91;5034134;28;20053;-60
2021/08/12 02:30:42;;;;;;;8.43;4.75;;;;;;;23.28;49.99;101678.72;5017863;28;20048;-60
2021/08/12 02:33:10;;;;;;;10.63;4.68;;;;;;;23.28;50.37;101681.47;5034112;28;20382;-60
2021/08/12 02:35:37;;;;;;;12.90;5.45;;;;;;;23.28;50.58;101680.59;5034984;28;20096;-60
2021/08/12 02:38:03;;;;;;;9.75;5.32;;;;;;;23.27;49.45;101684.38;5035070;28;20030;-60
2021/08/12 02:40:29;;;;;;;12.23;4.78;;;;;;;23.26;50.02;101688.13;5033996;28;20022;-59
2021/08/12 02:42:55;;;;;;;8.30;5.22;;;;;;;23.25;49.80;101686.44;5033710;28;20029;-60
2021/08/12 02:45:21;;;;;;;9.93;5.22;;;;;;;23.21;50.18;101680.50;5033602;28;20355;-60
2021/08/12 02:47:46;;;;;;;9.68;5.07;;;;;;;23.23;49.72;101683.88;5035221;28;20040;-60
2021/08/12 02:50:12;;;;;;;10.93;5.13;;;;;;;23.22;50.41;101682.22;5033582;28;20470;-59
2021/08/12 02:52:40;;;;;;;8.15;5.07;;;;;;;23.19;50.52;101677.13;5033466;28;20037;-59
2021/08/12 02:55:06;;;;;;;7.60;4.30;;;;;;;23.15;50.23;101676.66;5033859;28;20017;-60
2021/08/12 02:57:32;;;;;;;6.32;4.13;;;;;;;23.14;49.47;101680.41;5033718;28;20079;-60
2021/08/12 02:59:58;;;;;;;6.78;4.70;;;;;;;23.11;49.26;101685.44;5033482;28;20033;-58
2021/08/12 03:02:24;;;;;;;7.50;4.50;;;;;;;23.10;49.93;101672.78;5033865;28;20033;-60
2021/08/12 03:04:49;;;;;;;8.60;4.93;;;;;;;23.07;50.05;101678.63;5033611;28;20029;-60
2021/08/12 03:07:17;;;;;;;6.00;4.18;;;;;;;23.08;50.21;101680.34;5034904;28;20036;-60
2021/08/12 03:09:42;;;;;;;5.82;3.80;;;;;;;23.05;50.55;101681.56;5033389;28;20029;-59
2021/08/12 03:12:08;;;;;;;6.75;4.43;;;;;;;23.02;49.38;101683.84;5034376;28;20029;-60
2021/08/12 03:14:35;;;;;;;8.77;4.47;;;;;;;22.99;50.29;101676.00;5033597;28;20382;-60
2021/08/12 03:17:01;;;;;;;8.95;4.38;;;;;;;22.98;49.89;101677.03;5017074;28;20433;-59
2021/08/12 03:19:26;;;;;;;12.57;4.90;;;;;;;22.96;49.48;101669.03;5033369;28;20025;-60
2021/08/12 03:22:03;;;;;;;7.20;4.47;;;;;;;22.95;50.51;101663.75;5034712;28;20037;-59
2021/08/12 03:24:41;;;;;;;8.15;4.55;;;;;;;22.94;49.72;101667.53;5034552;28;20063;-60
2021/08/12 03:27:10;;;;;;;7.45;4.15;;;;;;;22.89;49.80;101657.16;5034328;28;20132;-60
2021/08/12 03:29:36;;;;;;;7.25;4.63;;;;;;;22.92;49.72;101667.69;5034365;28;20034;-60
2021/08/12 03:32:01;;;;;;;7.70;5.15;;;;;;;22.91;49.55;101667.91;5034373;28;20447;-60
2021/08/12 03:34:27;;;;;;;9.88;4.20;;;;;;;22.89;49.56;101670.81;5033950;28;20036;-60
2021/08/12 03:36:52;;;;;;;8.57;3.33;;;;;;;22.85;50.03;101663.19;5034039;28;20018;-60
2021/08/12 03:39:17;;;;;;;7.50;3.40;;;;;;;22.83;49.52;101665.28;5033137;28;20029;-60
2021/08/12 03:41:43;;;;;;;4.25;2.83;;;;;;;22.78;49.96;101665.81;5034064;28;20156;-60
2021/08/12 03:44:08;;;;;;;6.65;3.45;;;;;;;22.74;49.77;101663.66;5034105;28;20100;-60
2021/08/12 03:46:34;;;;;;;6.50;2.63;;;;;;;22.72;50.37;101673.94;5034512;28;20022;-60
2021/08/12 03:49:01;;;;;;;4.38;2.60;;;;;;;22.69;49.96;101666.13;5038373;28;20719;-60
2021/08/12 03:51:28;;;;;;;5.82;3.88;;;;;;;22.64;50.02;101661.19;5037964;28;20055;-60
2021/08/12 03:53:54;;;;;;;5.90;4.65;;;;;;;22.63;50.48;101667.69;5037063;28;20386;-59
2021/08/12 03:56:20;;;;;;;6.20;3.85;;;;;;;22.58;49.44;101665.50;5041466;28;20026;-60
2021/08/12 03:58:45;;;;;;;3.38;2.08;;;;;;;22.56;49.73;101664.84;5020168;28;20076;-60
2021/08/12 04:01:11;;;;;;;2.72;1.83;;;;;;;22.52;50.24;101663.53;5037900;28;20058;-60
2021/08/12 04:03:36;;;;;;;4.03;2.25;;;;;;;22.45;50.39;101665.28;5037916;28;20444;-60
2021/08/12 04:06:01;;;;;;;4.68;2.72;;;;;;;22.43;49.47;101671.97;5037591;28;20053;-59
2021/08/12 04:08:28;;;;;;;4.72;2.53;;;;;;;22.43;50.43;101681.03;5038010;28;20025;-60
2021/08/12 04:10:54;;;;;;;6.72;3.10;;;;;;;22.40;50.35;101681.41;5038265;28;20037;-59
2021/08/12 04:13:19;;;;;;;4.18;2.78;;;;;;;22.40;49.75;101686.00;5038198;28;20463;-60
2021/08/12 04:15:45;;;;;;;4.20;1.88;;;;;;;22.31;49.78;101677.03;5037898;28;20048;-60
2021/08/12 04:18:10;;;;;;;5.72;2.35;;;;;;;22.35;49.30;101680.25;5036391;28;20147;-60
2021/08/12 04:20:35;;;;;;;3.28;2.00;;;;;;;22.30;49.37;101680.81;5037638;28;20033;-60
2021/08/12 04:23:01;;;;;;;4.13;2.60;;;;;;;22.29;49.67;101683.72;5037887;28;20021;-60
2021/08/12 04:25:26;;;;;;;6.47;2.38;;;;;;;22.27;49.78;101686.66;5037707;28;20108;-60
2021/08/12 04:27:52;;;;;;;4.57;2.85;;;;;;;22.25;50.35;101682.41;5037954;28;20042;-60
2021/08/12 04:30:17;;;;;;;5.82;3.45;;;;;;;22.25;49.83;101683.22;5037351;28;20036;-60
2021/08/12 04:32:43;;;;;;;5.28;2.63;;;;;;;22.24;50.15;101681.56;5037585;28;20437;-60
2021/08/12 04:35:09;;;;;;;6.50;2.75;;;;;;;22.24;50.30;101676.09;5037276;28;20052;-60
2021/08/12 04:37:43;;;;;;;6.45;2.60;;;;;;;22.23;50.69;101674.38;5037603;28;20022;-60
2021/08/12 04:40:10;;;;;;;7.07;4.38;;;;;;;22.22;49.90;101678.13;5037736;28;20025;-60
2021/08/12 04:42:35;;;;;;;7.53;3.17;;;;;;;22.28;49.68;101684.78;5037718;28;20026;-59
2021/08/12 04:45:01;;;;;;;8.10;3.90;;;;;;;22.30;49.87;101691.75;5036056;28;20465;-60
2021/08/12 04:47:26;;;;;;;7.00;4.20;;;;;;;22.32;50.66;101689.66;5037407;28;20043;-60
2021/08/12 04:49:52;;;;;;;9.40;4.15;;;;;;;22.34;50.56;101687.59;5037398;28;20114;-60
2021/08/12 04:52:17;;;;;;;11.23;5.07;;;;;;;22.37;50.36;101687.22;5037381;28;20101;-60
2021/08/12 04:54:42;;;;;;;7.63;4.47;;;;;;;22.41;50.38;101691.28;5036059;28;20029;-60
2021/08/12 04:57:08;;;;;;;9.10;4.15;;;;;;;22.45;50.10;101692.59;5037021;28;20057;-59
2021/08/12 04:59:33;;;;;;;6.63;4.10;;;;;;;22.50;50.46;101698.34;5035208;28;20028;-60
2021/08/12 05:01:58;;;;;;;8.90;4.10;;;;;;;22.57;50.31;101690.28;5037412;28;20017;-59
2021/08/12 05:04:24;;;;;;;10.27;4.38;;;;;;;22.67;50.02;101690.88;5037108;28;20025;-59
2021/08/12 05:06:49;;;;;;;9.60;4.45;;;;;;;22.77;50.03;101701.53;5037228;28;20108;-59
2021/08/12 05:09:15;;;;;;;8.02;4.40;;;;;;;22.82;50.54;101701.81;5037044;28;20087;-61
2021/08/12 05:11:41;;;;;;;5.82;4.03;;;;;;;22.90;49.93;101704.47;5036990;28;20045;-59
2021/08/12 05:14:06;;;;;;;6.43;3.88;;;;;;;22.98;49.95;101707.94;5037275;28;20048;-59
2021/08/12 05:16:31;;;;;;;7.28;5.00;;;;;;;23.02;49.77;101703.81;5037073;28;20022;-59
2021/08/12 05:18:57;;;;;;;6.30;3.90;;;;;;;23.07;49.86;101705.97;5019001;28;20163;-60
2021/08/12 05:21:22;;;;;;;6.88;4.72;;;;;;;23.14;50.59;101704.19;5036863;28;20025;-60
2021/08/12 05:23:48;;;;;;;6.13;4.40;;;;;;;23.22;50.00;101705.97;5037331;28;20028;-60
2021/08/12 05:26:13;;;;;;;11.43;4.47;;;;;;;23.25;50.23;101703.72;5036585;28;20481;-58
2021/08/12 05:28:38;;;;;;;6.20;4.30;;;;;;;23.40;50.00;101704.53;5036967;28;20060;-59
2021/08/12 05:31:04;;;;;;;8.65;4.82;;;;;;;23.58;49.47;101705.00;5035333;28;20033;-60
2021/08/12 05:33:29;;;;;;;8.38;5.20;;;;;;;23.60;49.57;101699.31;5036219;28;20025;-59
2021/08/12 05:35:55;;;;;;;8.98;5.18;;;;;;;23.70;50.70;101706.16;5036637;28;20022;-59
2021/08/12 05:38:20;;;;;;;8.32;5.07;;;;;;;23.80;50.11;101702.28;5036603;28;20433;-60
2021/08/12 05:40:46;;;;;;;12.75;6.10;;;;;;;23.95;49.72;101700.34;5036462;28;20021;-60
2021/08/12 05:43:11;;;;;;;16.25;7.70;;;;;;;24.00;50.52;101697.84;5036250;28;20030;-60
2021/08/12 05:45:37;;;;;;;19.17;8.50;;;;;;;24.07;49.85;101687.81;5036174;28;20061;-60
2021/08/12 05:48:02;;;;;;;18.08;8.02;;;;;;;24.12;50.32;101690.84;5036397;28;20411;-59
2021/08/12 05:50:28;;;;;;;16.15;7.47;;;;;;;24.22;50.15;101691.38;5036342;28;20037;-60
2021/08/12 05:52:53;;;;;;;17.48;8.82;;;;;;;24.30;50.40;101693.94;5036356;28;20080;-59
2021/08/12 05:55:18;;;;;;;18.65;7.60;;;;;;;24.38;50.25;101688.31;5035851;28;20025;-59
2021/08/12 05:57:44;;;;;;;11.55;6.90;;;;;;;24.46;49.85;101684.59;5036205;28;20466;-59
2021/08/12 06:00:10;;;;;;;15.75;6.97;;;;;;;24.54;50.05;101684.47;5035802;28;20036;-59
2021/08/12 06:02:35;;;;;;;17.13;7.85;;;;;;;24.59;50.01;101682.81;5036004;28;20148;-60
2021/08/12 06:05:00;;;;;;;14.30;7.20;;;;;;;24.65;50.14;101676.50;5034685;28;20025;-59
2021/08/12 06:07:26;;;;;;;16.33;7.65;;;;;;;24.70;50.24;101681.41;5036199;28;20049;-60
2021/08/12 06:09:52;;;;;;;14.15;7.63;;;;;;;24.77;50.37;101674.91;5035374;28;20504;-60
2021/08/12 06:12:17;;;;;;;16.80;7.68;;;;;;;24.83;50.07;101673.28;5035714;28;20030;-60
2021/08/12 06:14:43;;;;;;;14.50;6.90;;;;;;;24.82;50.17;101666.97;5035635;28;20028;-59
2021/08/12 06:17:08;;;;;;;15.85;7.55;;;;;;;24.96;49.82;101678.03;5036137;28;20370;-59
2021/08/12 06:19:34;;;;;;;15.38;7.20;;;;;;;25.02;49.56;101672.56;5035791;28;20044;-60
2021/08/12 06:21:59;;;;;;;12.95;6.65;;;;;;;25.08;50.00;101677.22;5034400;28;20034;-60
2021/08/12 06:24:24;;;;;;;12.85;7.25;;;;;;;25.17;49.73;101686.13;5036204;28;20378;-59
2021/08/12 06:26:50;;;;;;;13.23;6.70;;;;;;;25.24;49.87;101682.38;5034998;28;20183;-60
2021/08/12 06:29:15;;;;;;;16.40;7.75;;;;;;;25.31;49.57;101682.41;5035627;28;20041;-60
2021/08/12 06:31:40;;;;;;;15.80;7.13;;;;;;;25.33;49.32;101680.28;5035569;28;20033;-60
2021/08/12 06:34:06;;;;;;;17.35;7.45;;;;;;;25.43;49.47;101689.00;5035521;28;20103;-60
2021/08/12 06:36:32;;;;;;;17.80;6.82;;;;;;;25.49;49.51;101690.94;5035375;28;20017;-60
2021/08/12 06:38:59;;;;;;;14.25;7.38;;;;;;;25.53;49.38;101692.22;5035787;28;20057;-59
2021/08/12 06:41:28;;;;;;;14.07;6.93;;;;;;;25.55;49.71;101692.88;5035228;28;20028;-59
2021/08/12 06:43:53;;;;;;;17.58;8.20;;;;;;;25.58;49.50;101697.94;5035256;28;20548;-60
2021/08/12 06:46:19;;;;;;;16.20;7.32;;;;;;;25.61;49.66;101700.28;5034813;28;20104;-59
2021/08/12 06:48:45;;;;;;;15.73;7.72;;;;;;;25.65;49.17;101707.06;5034013;28;20498;-60
2021/08/12 06:51:11;;;;;;;15.63;7.63;;;;;;;25.63;49.65;101687.19;5035299;28;20037;-60
2021/08/12 06:53:37;;;;;;;15.30;7.82;;;;;;;25.76;49.10;101697.38;5035474;28;20367;-60
2021/08/12 06:56:04;;;;;;;15.98;7.85;;;;;;;25.89;49.16;101692.75;5034316;28;20044;-60
2021/08/12 06:58:29;;;;;;;15.65;7.72;;;;;;;26.16;48.95;101687.34;5014125;28;20022;-60
2021/08/12 07:00:54;;;;;;;16.63;8.80;;;;;;;26.58;48.19;101681.38;5014526;28;20048;-61
2021/08/12 07:03:20;;;;;;;13.55;7.15;;;;;;;26.93;47.92;101687.50;5014585;28;20032;-60
2021/08/12 07:05:45;;;;;;;13.50;7.50;;;;;;;27.05;48.42;101688.53;5014830;28;20022;-60
2021/08/12 07:08:10;;;;;;;15.18;7.43;;;;;;;27.08;48.38;101694.41;5014233;28;20041;-59
2021/08/12 07:10:36;;;;;;;14.00;7.30;;;;;;;27.15;48.37;101695.25;5014954;28;20022;-60
2021/08/12 07:13:02;;;;;;;13.50;7.13;;;;;;;27.21;47.27;101685.28;5012980;28;20072;-61
2021/08/12 07:15:27;;;;;;;14.38;7.22;;;;;;;27.30;47.82;101689.50;4996815;28;20022;-60
2021/08/12 07:17:53;;;;;;;10.55;6.57;;;;;;;27.61;47.95;101697.00;5013707;28;20037;-59
2021/08/12 07:20:18;;;;;;;12.20;7.35;;;;;;;27.95;47.23;101691.06;5014616;28;20494;-59
2021/08/12 07:22:44;;;;;;;14.63;7.68;;;;;;;28.20;46.79;101696.63;5013654;28;20124;-59
2021/08/12 07:25:09;;;;;;;16.55;7.28;;;;;;;28.43;46.19;101688.59;5014103;28;20513;-60
2021/08/12 07:27:35;;;;;;;12.48;7.60;;;;;;;28.49;46.21;101697.88;5012662;28;20509;-60
2021/08/12 07:30:00;;;;;;;11.20;6.82;;;;;;;28.67;46.68;101700.72;5014393;28;20132;-59
2021/08/12 07:32:26;;;;;;;12.95;7.43;;;;;;;28.68;46.10;101697.72;5014158;28;20430;-60
2021/08/12 07:34:51;;;;;;;13.93;7.28;;;;;;;28.64;47.08;101701.19;5014458;28;20045;-60
2021/08/12 07:37:16;;;;;;;16.35;7.63;;;;;;;28.62;46.38;101706.03;5014445;28;20053;-62
2021/08/12 07:39:42;;;;;;;13.65;7.32;;;;;;;28.64;45.66;101709.47;5014347;28;20493;-61
2021/08/12 07:42:07;;;;;;;16.90;7.95;;;;;;;28.92;45.31;101704.28;5014005;28;20026;-60
2021/08/12 07:44:33;;;;;;;13.38;7.18;;;;;;;29.11;45.38;101700.47;5014196;28;20026;-60
2021/08/12 07:46:58;;;;;;;15.25;8.30;;;;;;;29.34;44.81;101697.03;5013799;28;20530;-61
2021/08/12 07:49:24;;;;;;;13.57;7.30;;;;;;;29.37;45.02;101702.91;5013769;28;20030;-60
2021/08/12 07:51:49;;;;;;;13.95;7.32;;;;;;;29.42;45.57;101703.09;5013887;28;20053;-60
2021/08/12 07:54:15;;;;;;;18.00;9.63;;;;;;;29.58;45.43;101709.88;5013804;28;20026;-60
2021/08/12 07:56:40;;;;;;;16.00;7.80;;;;;;;29.85;44.69;101710.38;5013659;28;20076;-60
2021/08/12 07:59:05;;;;;;;18.95;7.88;;;;;;;30.04;44.25;101712.00;5013544;28;20100;-60
2021/08/12 08:01:31;;;;;;;11.82;7.28;;;;;;;30.07;44.65;101700.47;5013356;28;20056;-60
2021/08/12 08:03:59;;;;;;;16.13;7.10;;;;;;;30.21;44.11;101703.91;5013644;28;20029;-61
2021/08/12 08:06:24;;;;;;;13.35;6.72;;;;;;;30.44;44.01;101709.47;5012542;28;20026;-60
2021/08/12 08:08:50;;;;;;;13.20;6.63;;;;;;;30.62;44.20;101711.31;5013850;28;20087;-60
2021/08/12 08:11:17;;;;;;;9.30;5.68;;;;;;;30.69;43.91;101712.00;5013806;28;20037;-60
2021/08/12 08:13:42;;;;;;;18.40;6.60;;;;;;;30.95;43.43;101711.56;5013494;28;20383;-60
2021/08/12 08:16:08;;;;;;;11.00;5.90;;;;;;;31.28;43.40;101708.97;5013496;28;20026;-60
2021/08/12 08:18:33;;;;;;;11.73;5.93;;;;;;;31.46;42.74;101719.91;5013224;28;20105;-61
2021/08/12 08:20:59;;;;;;;10.93;5.63;;;;;;;31.61;42.67;101717.47;5011931;28;20095;-61
2021/08/12 08:23:24;;;;;;;10.82;5.22;;;;;;;31.91;42.50;101722.75;5012070;28;20471;-61
2021/08/12 08:25:49;;;;;;;9.68;5.90;;;;;;;32.25;42.04;101726.47;5013723;28;20459;-60
2021/08/12 08:28:15;;;;;;;9.50;5.95;;;;;;;32.36;41.26;101714.44;5013463;28;20128;-60
2021/08/12 08:30:40;;;;;;;10.63;5.93;;;;;;;32.56;41.63;101719.53;5013490;28;20038;-60
2021/08/12 08:33:06;;;;;;;12.05;5.88;;;;;;;32.67;41.96;101719.44;5014080;28;20022;-60
2021/08/12 08:35:32;;;;;;;11.15;6.63;;;;;;;32.86;41.20;101708.06;5016683;28;20026;-61
2021/08/12 08:37:59;;;;;;;9.70;5.47;;;;;;;33.20;41.02;101710.50;5016998;28;20026;-60
2021/08/12 08:40:25;;;;;;;12.40;4.90;;;;;;;33.23;40.82;101704.44;5015668;28;20025;-60
2021/08/12 08:42:50;;;;;;;15.68;5.10;;;;;;;33.55;40.74;101712.06;5017258;28;20040;-60
2021/08/12 08:45:29;;;;;;;9.05;5.30;;;;;;;33.72;40.05;101713.72;5017050;28;20038;-60
2021/08/12 08:47:56;;;;;;;10.27;5.18;;;;;;;33.95;40.21;101713.38;5016605;28;20113;-58
2021/08/12 08:50:26;;;;;;;8.82;5.10;;;;;;;34.17;39.34;101705.03;5016883;28;20026;-58
2021/08/12 08:52:52;;;;;;;11.07;5.40;;;;;;;34.45;38.79;101703.88;5016354;28;20104;-58
2021/08/12 08:55:23;;;;;;;12.25;6.13;;;;;;;34.57;39.23;101710.09;5016408;28;20101;-59
2021/08/12 08:57:53;;;;;;;10.27;5.78;;;;;;;34.56;38.50;101719.53;5016546;28;20026;-58
2021/08/12 09:00:19;;;;;;;9.52;4.90;;;;;;;34.71;39.03;101711.31;5017292;28;20355;-58
2021/08/12 09:02:46;;;;;;;9.35;4.10;;;;;;;34.77;38.50;101709.41;5016507;28;20022;-58
2021/08/12 09:05:12;;;;;;;9.30;4.10;;;;;;;35.06;37.72;101708.81;5016383;28;20057;-58
2021/08/12 09:07:38;;;;;;;10.27;4.38;;;;;;;35.13;37.71;101708.53;5016164;28;20032;-58
2021/08/12 09:10:04;;;;;;;11.23;4.30;;;;;;;35.31;37.21;101716.44;5016124;28;20033;-60
2021/08/12 09:12:30;;;;;;;9.43;4.35;;;;;;;35.34;36.91;101701.97;5016722;28;20459;-62
2021/08/12 09:15:08;;;;;;;6.40;4.10;;;;;;;35.20;36.02;101709.16;5016049;28;20029;-62
2021/08/12 09:17:33;;;;;;;8.13;3.28;;;;;;;35.27;36.01;101715.28;5016250;28;20045;-61
2021/08/12 09:20:06;;;;;;;6.35;3.33;;;;;;;35.47;35.91;101707.03;5014766;28;20513;-61
2021/08/12 09:22:58;;;;;;;4.25;2.63;;;;;;;35.57;35.50;101709.03;5016193;28;20049;-61
2021/08/12 09:25:36;;;;;;;6.78;4.10;;;;;;;35.61;34.62;101704.59;5016010;28;20374;-61
2021/08/12 09:28:10;;;;;;;6.32;2.95;;;;;;;35.49;34.92;101706.72;5015663;28;20411;-60
2021/08/12 09:30:35;;;;;;;2.70;1.90;;;;;;;35.47;34.54;101707.03;5016053;28;20108;-61
2021/08/12 09:33:00;;;;;;;4.20;2.65;;;;;;;35.53;34.78;101713.44;5016150;28;20116;-61
2021/08/12 09:35:27;;;;;;;3.53;2.85;;;;;;;35.44;34.34;101709.50;5015934;28;20044;-61
2021/08/12 09:38:09;;;;;;;6.93;3.17;;;;;;;35.26;34.86;101712.78;5015899;28;20032;-62
2021/08/12 09:40:35;;;;;;;8.05;2.85;;;;;;;35.08;34.28;101711.31;5015824;28;20068;-60
2021/08/12 09:43:03;;;;;;;4.30;2.85;;;;;;;34.97;34.61;101710.38;5016076;28;20038;-60
2021/08/12 09:45:30;;;;;;;4.28;3.05;;;;;;;34.89;35.15;101696.97;5014543;28;20112;-59
2021/08/12 09:47:57;;;;;;;5.05;2.67;;;;;;;34.81;35.03;101703.03;5015654;28;20030;-58
2021/08/12 09:50:34;;;;;;;5.65;3.20;;;;;;;34.63;33.91;101683.97;5014483;28;20022;-61
2021/08/12 09:53:00;;;;;;;5.22;3.15;;;;;;;34.63;34.92;101697.06;5015571;28;20109;-61
2021/08/12 09:55:26;;;;;;;6.68;3.00;;;;;;;34.63;35.38;101703.47;5014064;28;20061;-59
2021/08/12 09:58:12;;;;;;;6.10;3.95;;;;;;;34.58;35.11;101699.81;5015720;28;20018;-61
2021/08/12 10:00:39;;;;;;;6.03;3.35;;;;;;;34.54;34.06;101693.88;5014897;28;20057;-60
2021/08/12 10:03:29;;;;;;;4.97;3.05;;;;;;;34.58;34.77;101705.38;5015184;28;20022;-59
2021/08/12 10:05:57;;;;;;;5.85;3.63;;;;;;;34.66;34.22;101696.53;5014961;28;20030;-60
2021/08/12 10:08:35;;;;;;;4.90;2.85;;;;;;;35.09;34.09;101697.09;5015049;28;20021;-61
2021/08/12 10:11:25;;;;;;;5.65;3.30;;;;;;;35.07;33.84;101699.31;5013714;28;20029;-60
2021/08/12 10:13:55;;;;;;;6.40;3.13;;;;;;;35.02;33.40;101690.91;5013750;28;20083;-60
2021/08/12 10:16:21;;;;;;;6.82;3.50;;;;;;;34.93;33.31;101691.66;5015509;28;20037;-60
2021/08/12 10:18:48;;;;;;;4.30;2.95;;;;;;;34.84;33.38;101701.66;5014038;28;20029;-59
2021/08/12 10:21:16;;;;;;;8.68;3.08;;;;;;;34.76;34.43;101691.03;5013890;28;20030;-60
2021/08/12 10:23:43;;;;;;;7.13;2.30;;;;;;;34.65;33.58;101690.09;5015009;28;20026;-60
2021/08/12 10:26:11;;;;;;;7.93;2.83;;;;;;;34.63;34.39;101686.75;5013886;28;20120;-59
2021/08/12 10:28:38;;;;;;;6.28;2.88;;;;;;;34.65;33.87;101690.09;5013533;28;20053;-59
2021/08/12 10:31:05;;;;;;;4.95;2.78;;;;;;;34.63;33.91;101686.75;5013744;28;20095;-60
2021/08/12 10:33:32;;;;;;;3.25;2.40;;;;;;;34.59;33.32;101685.63;5013602;28;20030;-60
2021/08/12 10:35:58;;;;;;;4.22;2.60;;;;;;;34.69;33.65;101688.47;5015093;28;20033;-60
2021/08/12 10:38:23;;;;;;;4.15;2.67;;;;;;;34.67;33.85;101687.91;5013328;28;20029;-59
2021/08/12 10:40:52;;;;;;;3.72;2.58;;;;;;;34.66;33.93;101685.38;5013301;28;20037;-59
2021/08/12 10:43:20;;;;;;;6.15;2.33;;;;;;;34.62;33.28;101679.50;5013605;28;20041;-59
2021/08/12 10:45:56;;;;;;;4.95;2.72;;;;;;;34.59;33.46;101677.28;5014802;28;20044;-59
2021/08/12 10:48:24;;;;;;;5.35;2.70;;;;;;;34.55;33.11;101678.88;5014392;28;20030;-60
2021/08/12 10:51:01;;;;;;;5.85;3.20;;;;;;;34.48;33.30;101684.66;5013954;28;20026;-60
2021/08/12 10:53:27;;;;;;;4.38;3.22;;;;;;;34.44;34.26;101677.13;5014544;28;20025;-60
2021/08/12 10:55:52;;;;;;;6.80;3.30;;;;;;;34.43;33.64;101675.44;5014520;28;20390;-59
2021/08/12 10:58:18;;;;;;;5.00;2.88;;;;;;;34.41;34.51;101672.09;5014535;28;20032;-60
2021/08/12 11:00:51;;;;;;;4.22;2.72;;;;;;;34.40;33.84;101675.97;5014494;28;20459;-60
2021/08/12 11:03:31;;;;;;;3.85;2.60;;;;;;;34.37;33.78;101670.94;5014100;28;20022;-60
2021/08/12 11:06:03;;;;;;;7.57;2.70;;;;;;;34.35;33.39;101678.72;5014378;28;20025;-60
2021/08/12 11:08:54;;;;;;;6.90;3.13;;;;;;;34.39;33.65;101679.88;5014195;28;20038;-60
2021/08/12 11:11:25;;;;;;;3.17;2.50;;;;;;;34.49;34.48;101680.78;5012858;28;20022;-60
2021/08/12 11:13:56;;;;;;;5.38;3.08;;;;;;;34.86;33.74;101679.94;5014377;28;20079;-61
2021/08/12 11:16:23;;;;;;;6.10;3.25;;;;;;;35.67;32.23;101685.91;5014413;28;20358;-61
2021/08/12 11:18:52;;;;;;;4.70;2.53;;;;;;;36.61;31.58;101686.28;5013993;28;20068;-60
2021/08/12 11:21:30;;;;;;;3.17;2.55;;;;;;;37.31;31.07;101668.50;5014111;28;20026;-60